Time;durP1;ratioP1;P1;durP2;ratioP2;P2;SDS_P1;SDS_P2;PMS_P1;PMS_P2;Temp;Humidity;BMP_temperature;BMP_pressure;BME280_temperature;BME280_humidity;BME280_pressure;Samples;Min_cycle;Max_cycle;Signal;HPM_P1;HPM_P2
2022/01/16 00:04:36;;;;;;;12.00;10.63;;;3.60;99.90;;;;;;5094387;28;20156;-76
2022/01/16 00:07:04;;;;;;;12.50;10.80;;;3.60;99.90;;;;;;5092666;28;20172;-76
2022/01/16 00:09:31;;;;;;;12.27;10.50;;;3.60;99.90;;;;;;5094288;28;20215;-76
2022/01/16 00:12:05;;;;;;;12.33;11.03;;;3.60;99.90;;;;;;5092552;28;20188;-76
2022/01/16 00:14:31;;;;;;;12.60;11.30;;;3.50;99.90;;;;;;5092572;28;20537;-76
2022/01/16 00:16:58;;;;;;;11.50;10.27;;;3.50;99.90;;;;;;5092580;28;20176;-76
2022/01/16 00:19:24;;;;;;;12.87;10.60;;;3.60;99.90;;;;;;5093639;28;20256;-76
2022/01/16 00:21:50;;;;;;;13.23;11.10;;;3.60;99.90;;;;;;5092477;28;20173;-76
2022/01/16 00:24:15;;;;;;;12.50;10.60;;;3.60;99.90;;;;;;5092483;28;20184;-76
2022/01/16 00:30:41;;;;;;;11.60;9.77;;;3.60;99.90;;;;;;5093500;28;20198;-76
2022/01/16 00:33:07;;;;;;;12.83;9.77;;;3.50;99.90;;;;;;5092296;28;20226;-76
2022/01/16 00:35:32;;;;;;;11.07;9.43;;;3.50;99.90;;;;;;5093541;28;20177;-76
2022/01/16 00:41:35;;;;;;;10.00;8.83;;;3.50;99.90;;;;;;5093753;28;20223;-76
2022/01/16 00:44:01;;;;;;;11.57;9.90;;;3.50;99.90;;;;;;5092079;28;20267;-76
2022/01/16 00:46:26;;;;;;;11.40;9.40;;;3.50;99.90;;;;;;5093567;28;20299;-76
2022/01/16 00:48:52;;;;;;;11.20;9.20;;;3.40;99.90;;;;;;5093427;28;20229;-76
2022/01/16 00:51:17;;;;;;;11.93;9.73;;;3.40;99.90;;;;;;5092562;28;20192;-76
2022/01/16 00:53:44;;;;;;;12.40;9.73;;;3.40;99.90;;;;;;5093384;28;20169;-76
2022/01/16 00:56:11;;;;;;;11.37;10.13;;;3.50;99.90;;;;;;5093228;28;20172;-76
2022/01/16 00:58:36;;;;;;;10.10;8.47;;;3.50;99.90;;;;;;5092766;28;20193;-76
2022/01/16 01:01:02;;;;;;;10.20;9.07;;;3.40;99.90;;;;;;5091878;28;20193;-77
2022/01/16 01:03:29;;;;;;;12.43;10.00;;;3.40;99.90;;;;;;5093270;28;20173;-77
2022/01/16 01:05:54;;;;;;;10.90;8.83;;;3.40;99.90;;;;;;5092077;28;20199;-77
2022/01/16 01:08:20;;;;;;;10.00;9.00;;;3.40;99.90;;;;;;5092297;28;20181;-77
2022/01/16 01:10:49;;;;;;;11.60;9.70;;;3.50;99.90;;;;;;5093096;28;20252;-77
2022/01/16 01:13:32;;;;;;;9.83;8.83;;;3.50;99.90;;;;;;5093236;28;20173;-77
2022/01/16 01:16:27;;;;;;;12.43;10.10;;;3.50;99.90;;;;;;5092072;28;20188;-76
2022/01/16 01:18:53;;;;;;;13.30;10.53;;;3.40;99.90;;;;;;5092707;28;20193;-76
2022/01/16 01:21:28;;;;;;;12.43;9.63;;;3.40;99.90;;;;;;5093018;28;20197;-76
2022/01/16 01:23:56;;;;;;;11.03;9.73;;;3.50;99.90;;;;;;5091791;28;20169;-76
2022/01/16 01:26:26;;;;;;;13.23;10.30;;;3.50;99.90;;;;;;5092165;28;20181;-76
2022/01/16 01:28:52;;;;;;;14.40;9.80;;;3.50;99.90;;;;;;5091805;28;20223;-76
2022/01/16 01:31:18;;;;;;;12.63;10.10;;;3.40;99.90;;;;;;5091681;28;20229;-76
2022/01/16 01:33:43;;;;;;;12.17;10.47;;;3.40;99.90;;;;;;5091810;28;20212;-76
2022/01/16 01:36:09;;;;;;;11.97;9.90;;;3.40;99.90;;;;;;5092085;28;20216;-76
2022/01/16 01:38:34;;;;;;;11.13;9.73;;;3.30;99.90;;;;;;5091652;28;20197;-76
2022/01/16 01:41:00;;;;;;;14.00;11.20;;;3.30;99.90;;;;;;5093085;28;20197;-76
2022/01/16 01:51:36;;;;;;;13.43;10.93;;;3.20;99.90;;;;;;5094790;28;20215;-76
2022/01/16 01:54:02;;;;;;;12.60;10.80;;;3.20;99.90;;;;;;5095534;28;20180;-76
2022/01/16 01:56:28;;;;;;;12.73;11.13;;;3.30;99.90;;;;;;5096063;28;20185;-76
2022/01/16 01:58:57;;;;;;;12.77;10.23;;;3.30;99.90;;;;;;5095046;28;20257;-76
2022/01/16 02:01:22;;;;;;;12.93;10.53;;;3.30;99.90;;;;;;5096397;28;20197;-76
2022/01/16 02:03:49;;;;;;;12.70;10.57;;;3.30;99.90;;;;;;5095513;28;20173;-76
2022/01/16 02:06:26;;;;;;;13.50;10.63;;;3.40;99.90;;;;;;5096560;28;20169;-76
2022/01/16 02:08:57;;;;;;;11.50;8.97;;;3.20;99.90;;;;;;5095151;28;20271;-76
2022/01/16 02:11:26;;;;;;;11.63;9.50;;;3.20;99.90;;;;;;5094828;28;20746;-76
2022/01/16 02:35:39;;;;;;;16.63;13.80;;;3.00;99.90;;;;;;5096009;28;20160;-76
2022/01/16 02:38:08;;;;;;;18.83;14.13;;;3.00;99.90;;;;;;5094298;28;20201;-76
2022/01/16 02:40:35;;;;;;;19.33;15.13;;;3.00;99.90;;;;;;5095415;28;20729;-76
2022/01/16 02:43:02;;;;;;;20.23;15.80;;;3.10;99.90;;;;;;5095568;28;20192;-76
2022/01/16 02:45:31;;;;;;;21.17;15.93;;;3.00;99.90;;;;;;5094636;28;20181;-76
2022/01/16 02:48:00;;;;;;;21.80;15.97;;;2.90;99.90;;;;;;5094478;28;20184;-76
2022/01/16 02:50:27;;;;;;;22.20;17.20;;;2.90;99.90;;;;;;5093993;28;20193;-76
2022/01/16 02:52:53;;;;;;;21.33;17.30;;;2.80;99.90;;;;;;5094341;28;20192;-76
2022/01/16 02:55:21;;;;;;;22.53;18.10;;;2.80;99.90;;;;;;5095250;28;20310;-76
2022/01/16 02:57:48;;;;;;;22.10;16.77;;;2.80;99.90;;;;;;5094989;28;20284;-76
2022/01/16 03:00:14;;;;;;;24.60;18.27;;;2.80;99.90;;;;;;5094985;28;20228;-76
2022/01/16 03:02:39;;;;;;;22.37;17.27;;;2.80;99.90;;;;;;5093764;28;20204;-76
2022/01/16 03:05:05;;;;;;;22.53;18.37;;;2.80;99.90;;;;;;5094162;28;20180;-76
2022/01/16 03:07:32;;;;;;;24.37;17.63;;;2.70;99.90;;;;;;5095172;28;20212;-76
2022/01/16 03:10:37;;;;;;;23.53;17.40;;;2.70;99.90;;;;;;5094029;28;20205;-76
2022/01/16 03:13:02;;;;;;;24.17;17.63;;;2.60;99.90;;;;;;5094867;28;20184;-76
2022/01/16 03:15:28;;;;;;;24.83;17.83;;;2.70;99.90;;;;;;5093624;28;20184;-76
2022/01/16 03:23:21;;;;;;;24.23;18.00;;;2.60;99.90;;;;;;5095255;28;20168;-77
2022/01/16 03:25:48;;;;;;;23.67;17.30;;;2.70;99.90;;;;;;5093469;28;20185;-77
2022/01/16 03:28:14;;;;;;;23.50;17.70;;;2.80;99.90;;;;;;5094574;28;20181;-77
2022/01/16 03:30:39;;;;;;;20.97;16.37;;;2.70;99.90;;;;;;5094442;28;20200;-77
2022/01/16 03:33:05;;;;;;;23.00;17.00;;;2.70;99.90;;;;;;5093275;28;20192;-77
2022/01/16 03:35:31;;;;;;;24.97;18.40;;;2.60;99.90;;;;;;5093627;28;20650;-77
2022/01/16 03:37:57;;;;;;;20.20;15.30;;;2.60;99.90;;;;;;5094402;28;20204;-77
2022/01/16 03:40:24;;;;;;;20.30;15.60;;;2.60;99.90;;;;;;5093378;28;20196;-77
2022/01/16 03:42:50;;;;;;;20.10;15.37;;;2.70;99.90;;;;;;5093078;28;20220;-77
2022/01/16 03:45:16;;;;;;;22.90;15.87;;;2.80;99.90;;;;;;5094010;28;20576;-77
2022/01/16 03:47:42;;;;;;;21.67;16.00;;;2.80;99.90;;;;;;5093006;28;20181;-77
2022/01/16 03:50:09;;;;;;;20.17;15.10;;;2.80;99.90;;;;;;5092941;28;20224;-77
2022/01/16 03:52:35;;;;;;;18.97;15.27;;;2.80;99.90;;;;;;5093461;28;20176;-77
2022/01/16 03:55:02;;;;;;;24.17;16.60;;;2.80;99.90;;;;;;5094433;28;20177;-77
2022/01/16 03:57:28;;;;;;;20.33;16.03;;;2.80;99.90;;;;;;5092762;28;20200;-77
2022/01/16 03:59:54;;;;;;;23.27;17.50;;;2.80;99.90;;;;;;5093915;28;20267;-77
2022/01/16 04:02:19;;;;;;;23.17;17.73;;;2.80;99.90;;;;;;5092812;28;20173;-76
2022/01/16 04:04:45;;;;;;;25.13;18.13;;;2.80;99.90;;;;;;5093946;28;20180;-76
2022/01/16 04:07:15;;;;;;;21.60;17.10;;;2.80;99.90;;;;;;5093953;28;20173;-76
2022/01/16 04:09:41;;;;;;;25.27;17.63;;;2.80;99.90;;;;;;5092598;28;20156;-76
2022/01/16 04:12:08;;;;;;;23.77;17.00;;;2.80;99.90;;;;;;5093912;28;20697;-76
2022/01/16 04:17:22;;;;;;;26.23;18.00;;;2.60;99.90;;;;;;5094310;28;20183;-76
2022/01/16 04:19:49;;;;;;;27.43;18.67;;;2.60;99.90;;;;;;5092448;28;20205;-76
2022/01/16 04:22:15;;;;;;;27.67;19.00;;;2.50;99.90;;;;;;5094518;28;20546;-76
2022/01/16 04:24:41;;;;;;;27.10;18.33;;;2.50;99.90;;;;;;5093389;28;20624;-76
2022/01/16 04:27:10;;;;;;;26.87;19.50;;;2.40;99.90;;;;;;5092903;28;20173;-76
2022/01/16 04:29:35;;;;;;;24.83;17.87;;;2.50;99.90;;;;;;5092710;28;20189;-76
2022/01/16 04:32:01;;;;;;;31.90;20.57;;;2.50;99.90;;;;;;5092667;28;20177;-76
2022/01/16 04:34:27;;;;;;;26.97;19.23;;;2.40;99.90;;;;;;5092328;28;20233;-76
2022/01/16 04:36:52;;;;;;;27.17;18.60;;;2.40;99.90;;;;;;5093593;28;20192;-76
2022/01/16 04:39:20;;;;;;;29.60;19.00;;;2.30;99.90;;;;;;5094248;28;20636;-76
2022/01/16 04:44:30;;;;;;;27.37;18.77;;;2.30;99.90;;;;;;5093636;28;20211;-76
2022/01/16 04:46:57;;;;;;;28.90;19.13;;;2.40;99.90;;;;;;5092195;28;20169;-76
2022/01/16 04:49:22;;;;;;;25.47;17.67;;;2.20;99.90;;;;;;5092183;28;20176;-76
2022/01/16 04:51:48;;;;;;;29.67;20.03;;;2.20;99.90;;;;;;5092384;28;20207;-76
2022/01/16 04:54:14;;;;;;;29.77;19.73;;;2.20;99.90;;;;;;5092150;28;20181;-76
2022/01/16 04:56:40;;;;;;;27.90;19.37;;;2.20;99.90;;;;;;5092407;28;20185;-76
2022/01/16 04:59:06;;;;;;;29.63;19.77;;;2.20;99.90;;;;;;5092913;28;20276;-76
2022/01/16 05:01:32;;;;;;;28.63;20.57;;;2.10;99.90;;;;;;5092282;28;20220;-76
2022/01/16 05:03:58;;;;;;;30.27;19.70;;;2.00;99.90;;;;;;5091995;28;20595;-76
2022/01/16 05:06:23;;;;;;;29.97;19.53;;;2.10;99.90;;;;;;5093548;28;20201;-77
2022/01/16 05:08:49;;;;;;;29.53;19.93;;;2.10;99.90;;;;;;5092354;28;20207;-77
2022/01/16 05:11:20;;;;;;;31.77;20.40;;;2.10;99.90;;;;;;5092658;28;20200;-77
2022/01/16 05:18:56;;;;;;;31.83;20.43;;;2.10;99.90;;;;;;5093495;28;20210;-77
2022/01/16 05:21:21;;;;;;;31.30;21.13;;;2.10;99.90;;;;;;5091875;28;20296;-77
2022/01/16 05:23:47;;;;;;;29.87;19.93;;;2.20;99.90;;;;;;5093049;28;20234;-77
2022/01/16 05:26:17;;;;;;;30.80;20.23;;;2.20;99.90;;;;;;5094158;28;20177;-77
2022/01/16 05:28:42;;;;;;;31.97;20.50;;;2.20;99.90;;;;;;5097196;28;20181;-77
2022/01/16 05:31:08;;;;;;;30.10;19.93;;;2.10;99.90;;;;;;5097003;28;20212;-77
2022/01/16 05:33:33;;;;;;;32.17;20.10;;;2.10;99.90;;;;;;5095702;28;20188;-77
2022/01/16 05:35:59;;;;;;;33.73;21.93;;;2.10;99.90;;;;;;5095632;28;20267;-77
2022/01/16 05:38:24;;;;;;;31.43;20.80;;;2.10;99.90;;;;;;5096324;28;20231;-77
2022/01/16 05:40:50;;;;;;;30.27;19.93;;;2.20;99.90;;;;;;5095919;28;20200;-77
2022/01/16 05:43:16;;;;;;;30.00;20.37;;;2.10;99.90;;;;;;5095686;28;20192;-77
2022/01/16 05:45:41;;;;;;;29.57;21.17;;;2.20;99.90;;;;;;5095789;28;20173;-77
2022/01/16 05:48:07;;;;;;;27.83;20.90;;;2.20;99.90;;;;;;5095341;28;20184;-77
2022/01/16 05:50:33;;;;;;;30.20;20.80;;;2.30;99.90;;;;;;5095948;28;20197;-77
2022/01/16 05:53:00;;;;;;;28.87;20.50;;;2.30;99.90;;;;;;5095260;28;20644;-77
2022/01/16 05:55:29;;;;;;;30.57;20.87;;;2.20;99.90;;;;;;5096294;28;20185;-77
2022/01/16 05:57:55;;;;;;;30.97;21.30;;;2.30;99.90;;;;;;5096248;28;20200;-77
2022/01/16 06:00:20;;;;;;;30.03;21.40;;;2.20;99.90;;;;;;5095366;28;20197;-77
2022/01/16 06:02:46;;;;;;;31.67;21.97;;;2.20;99.90;;;;;;5095083;28;20177;-77
2022/01/16 06:05:12;;;;;;;31.03;21.67;;;2.20;99.90;;;;;;5096138;28;20284;-77
2022/01/16 06:07:44;;;;;;;31.17;21.60;;;2.20;99.90;;;;;;5096425;28;20227;-77
2022/01/16 06:10:10;;;;;;;30.90;21.07;;;2.30;99.90;;;;;;5096088;28;20189;-76
2022/01/16 06:12:35;;;;;;;30.77;22.10;;;2.20;99.90;;;;;;5096349;28;20200;-76
2022/01/16 06:15:01;;;;;;;31.57;22.20;;;2.20;99.90;;;;;;5095178;28;20188;-76
2022/01/16 06:17:27;;;;;;;28.90;20.87;;;2.30;99.90;;;;;;5094697;28;20204;-76
2022/01/16 06:19:52;;;;;;;32.67;22.60;;;2.30;99.90;;;;;;5096041;28;20250;-76
2022/01/16 06:22:18;;;;;;;30.30;21.97;;;2.20;99.90;;;;;;5095985;28;20177;-76
2022/01/16 06:24:43;;;;;;;34.50;24.00;;;2.20;99.90;;;;;;5096019;28;20191;-76
2022/01/16 06:27:09;;;;;;;60.37;36.60;;;2.20;99.90;;;;;;5095912;28;20184;-76
2022/01/16 06:29:34;;;;;;;44.70;28.93;;;2.20;99.90;;;;;;5095811;28;20255;-76
2022/01/16 06:32:01;;;;;;;37.20;25.10;;;2.20;99.90;;;;;;5094719;28;20280;-76
2022/01/16 06:34:27;;;;;;;33.37;23.27;;;2.00;99.90;;;;;;5094563;28;20177;-76
2022/01/16 06:36:53;;;;;;;33.37;23.00;;;2.00;99.90;;;;;;5094099;28;20234;-76
2022/01/16 06:39:19;;;;;;;29.97;21.97;;;1.90;99.90;;;;;;5094321;28;20330;-76
2022/01/16 06:41:45;;;;;;;32.00;21.90;;;1.90;99.90;;;;;;5094607;28;20207;-76
2022/01/16 06:44:10;;;;;;;37.03;25.80;;;1.90;99.90;;;;;;5094362;28;20196;-76
2022/01/16 06:46:36;;;;;;;33.13;23.33;;;1.90;99.90;;;;;;5095086;28;20180;-76
2022/01/16 06:49:01;;;;;;;34.90;23.93;;;2.00;99.90;;;;;;5095479;28;20214;-76
2022/01/16 06:51:27;;;;;;;32.47;22.93;;;2.10;99.90;;;;;;5094143;28;20201;-76
2022/01/16 06:53:54;;;;;;;32.20;23.13;;;2.00;99.90;;;;;;5094117;28;20173;-76
2022/01/16 06:56:20;;;;;;;34.27;23.50;;;2.10;99.90;;;;;;5095207;28;20238;-76
2022/01/16 06:58:46;;;;;;;33.53;22.80;;;2.10;99.90;;;;;;5093862;28;20204;-76
2022/01/16 07:01:13;;;;;;;34.47;22.17;;;2.20;99.90;;;;;;5095902;28;20197;-76
2022/01/16 07:03:40;;;;;;;32.97;22.60;;;2.20;99.90;;;;;;5093888;28;20239;-76
2022/01/16 07:06:05;;;;;;;30.17;22.40;;;2.10;99.90;;;;;;5093964;28;20205;-76
2022/01/16 07:08:31;;;;;;;31.23;22.87;;;2.20;99.90;;;;;;5094559;28;20181;-76
2022/01/16 07:10:58;;;;;;;30.93;23.27;;;2.20;99.90;;;;;;5095160;28;20196;-76
2022/01/16 07:13:24;;;;;;;37.87;24.10;;;2.30;99.90;;;;;;5094013;28;20206;-76
2022/01/16 07:15:50;;;;;;;33.67;22.17;;;2.30;99.90;;;;;;5095042;28;20176;-77
2022/01/16 07:18:17;;;;;;;31.97;23.40;;;2.30;99.90;;;;;;5093469;28;20228;-77
2022/01/16 07:20:43;;;;;;;32.83;22.87;;;2.20;99.90;;;;;;5094629;28;20200;-77
2022/01/16 07:23:10;;;;;;;38.23;24.50;;;2.20;99.90;;;;;;5093452;28;20177;-77
2022/01/16 07:25:36;;;;;;;34.67;23.87;;;2.20;99.90;;;;;;5093808;28;20173;-77
2022/01/16 07:28:02;;;;;;;36.17;24.67;;;2.10;99.90;;;;;;5094300;28;20275;-77
2022/01/16 07:30:27;;;;;;;38.77;26.13;;;2.10;99.90;;;;;;5093602;28;20224;-78
2022/01/16 07:32:53;;;;;;;37.70;24.97;;;2.10;99.90;;;;;;5093419;28;20181;-77
2022/01/16 07:35:19;;;;;;;37.47;24.90;;;2.10;99.90;;;;;;5093234;28;20177;-77
2022/01/16 07:37:44;;;;;;;37.83;24.93;;;2.00;99.90;;;;;;5094214;28;20206;-77
2022/01/16 07:40:11;;;;;;;36.87;25.00;;;2.00;99.90;;;;;;5093942;28;20197;-77
2022/01/16 07:42:36;;;;;;;43.17;27.73;;;2.00;99.90;;;;;;5092998;28;20181;-77
2022/01/16 07:45:03;;;;;;;37.13;26.60;;;2.00;99.90;;;;;;5094305;28;20173;-82
2022/01/16 07:47:29;;;;;;;36.30;23.53;;;2.00;99.90;;;;;;5094222;28;20173;-77
2022/01/16 07:49:54;;;;;;;41.20;25.57;;;1.90;99.90;;;;;;5092150;28;20550;-77
2022/01/16 07:52:20;;;;;;;41.00;26.00;;;1.90;99.90;;;;;;5093059;28;20238;-77
2022/01/16 07:54:46;;;;;;;39.07;26.80;;;1.80;99.90;;;;;;5094225;28;20179;-77
2022/01/16 07:57:11;;;;;;;43.43;28.03;;;1.90;99.90;;;;;;5093966;28;20208;-77
2022/01/16 07:59:37;;;;;;;38.53;25.37;;;2.00;99.90;;;;;;5094352;28;20230;-77
2022/01/16 08:02:03;;;;;;;39.00;24.80;;;2.00;99.90;;;;;;5093983;28;20165;-77
2022/01/16 08:04:29;;;;;;;36.73;25.00;;;2.10;99.90;;;;;;5092883;28;20263;-77
2022/01/16 08:06:54;;;;;;;39.20;23.93;;;2.20;99.90;;;;;;5094300;28;20666;-76
2022/01/16 08:09:20;;;;;;;38.83;25.60;;;2.10;99.90;;;;;;5092761;28;20181;-76
2022/01/16 08:11:46;;;;;;;37.63;25.17;;;2.20;99.90;;;;;;5094138;28;20200;-76
2022/01/16 08:14:16;;;;;;;37.40;23.60;;;2.20;99.90;;;;;;5093373;28;20185;-76
2022/01/16 08:16:42;;;;;;;40.63;25.63;;;2.20;99.90;;;;;;5093923;28;20161;-76
2022/01/16 08:19:07;;;;;;;44.07;25.53;;;2.20;99.90;;;;;;5093595;28;20216;-76
2022/01/16 08:21:33;;;;;;;39.17;24.97;;;2.20;99.90;;;;;;5092862;28;20564;-76
2022/01/16 08:24:00;;;;;;;41.93;25.60;;;2.10;99.90;;;;;;5093889;28;20177;-76
2022/01/16 08:26:25;;;;;;;40.37;24.70;;;2.10;99.90;;;;;;5092458;28;20267;-76
2022/01/16 08:28:51;;;;;;;41.80;24.77;;;2.10;99.90;;;;;;5092764;28;20200;-76
2022/01/16 08:31:16;;;;;;;39.40;25.80;;;2.10;99.90;;;;;;5092980;28;20192;-78
2022/01/16 08:37:04;;;;;;;40.37;24.00;;;2.10;99.90;;;;;;5093654;28;20195;-76
2022/01/16 08:39:29;;;;;;;38.70;24.80;;;2.10;99.90;;;;;;5092162;28;20204;-76
2022/01/16 08:41:55;;;;;;;41.50;24.37;;;2.10;99.90;;;;;;5093778;28;20180;-76
2022/01/16 08:47:56;;;;;;;38.47;24.90;;;2.10;99.90;;;;;;5093351;28;20219;-76
2022/01/16 08:50:21;;;;;;;36.07;22.40;;;2.00;99.90;;;;;;5092106;28;20231;-77
2022/01/16 08:52:48;;;;;;;39.40;23.70;;;2.10;99.90;;;;;;5092132;28;20180;-77
2022/01/16 08:55:50;;;;;;;37.43;23.33;;;2.10;99.90;;;;;;5092696;28;20181;-76
2022/01/16 08:58:22;;;;;;;37.80;23.47;;;2.10;99.90;;;;;;5111895;28;20198;-76
2022/01/16 09:00:50;;;;;;;37.03;23.90;;;2.10;99.90;;;;;;5115160;28;20192;-80
2022/01/16 09:03:20;;;;;;;37.43;23.17;;;2.20;99.90;;;;;;5116732;28;20196;-75
2022/01/16 09:05:46;;;;;;;46.87;30.00;;;2.20;99.90;;;;;;5118009;28;20160;-76
2022/01/16 09:08:13;;;;;;;36.17;22.77;;;2.30;99.90;;;;;;5116548;28;20176;-76
2022/01/16 09:10:41;;;;;;;36.47;23.87;;;2.30;99.90;;;;;;5116277;28;20200;-76
2022/01/16 09:13:11;;;;;;;33.70;21.73;;;2.30;99.90;;;;;;5116426;28;20598;-76
2022/01/16 09:15:38;;;;;;;37.17;23.43;;;2.40;99.90;;;;;;5116481;28;20183;-76
2022/01/16 09:18:04;;;;;;;35.53;21.77;;;2.50;99.90;;;;;;5116287;28;20200;-76
2022/01/16 09:20:30;;;;;;;33.67;21.60;;;2.50;99.90;;;;;;5116148;28;20195;-76
2022/01/16 09:23:20;;;;;;;33.83;21.80;;;2.50;99.90;;;;;;5117517;28;20173;-76
2022/01/16 09:25:46;;;;;;;33.73;22.23;;;2.60;99.90;;;;;;5116289;28;20240;-76
2022/01/16 09:28:11;;;;;;;27.63;18.13;;;2.60;99.90;;;;;;5116196;28;20616;-76
2022/01/16 09:30:37;;;;;;;27.97;17.57;;;2.60;99.90;;;;;;5116135;28;20196;-76
2022/01/16 09:33:34;;;;;;;24.00;16.47;;;2.50;99.90;;;;;;5116067;28;20180;-76
2022/01/16 09:36:01;;;;;;;25.17;16.90;;;2.50;99.90;;;;;;5116109;28;20178;-76
2022/01/16 09:38:27;;;;;;;23.87;17.20;;;2.60;99.90;;;;;;5117166;28;20192;-76
2022/01/16 09:40:54;;;;;;;21.30;16.63;;;2.60;99.90;;;;;;5117108;28;20199;-76
2022/01/16 09:43:20;;;;;;;17.77;14.23;;;2.60;99.90;;;;;;5116039;28;20211;-76
2022/01/16 09:45:45;;;;;;;19.03;13.03;;;2.50;99.90;;;;;;5115946;28;20203;-76
2022/01/16 09:48:11;;;;;;;15.27;10.47;;;2.50;99.90;;;;;;5116023;28;20557;-76
2022/01/16 09:50:37;;;;;;;15.17;10.63;;;2.50;99.90;;;;;;5115528;28;20270;-76
2022/01/16 09:53:03;;;;;;;17.63;11.77;;;2.50;99.90;;;;;;5116859;28;20259;-76
2022/01/16 09:55:28;;;;;;;14.97;10.57;;;2.60;99.90;;;;;;5115994;28;20176;-76
2022/01/16 09:57:56;;;;;;;14.27;9.70;;;2.50;99.90;;;;;;5115482;28;20248;-76
2022/01/16 10:00:26;;;;;;;14.50;10.43;;;2.50;99.90;;;;;;5116295;28;20261;-76
2022/01/16 10:02:53;;;;;;;13.70;9.77;;;2.50;99.90;;;;;;5116874;28;20177;-76
2022/01/16 10:08:42;;;;;;;14.83;9.70;;;2.40;99.90;;;;;;5116572;28;20187;-76
2022/01/16 10:11:36;;;;;;;14.10;10.13;;;2.40;99.90;;;;;;5115030;28;20235;-76
2022/01/16 10:14:13;;;;;;;17.47;10.97;;;2.30;99.90;;;;;;5116120;28;20172;-76
2022/01/16 10:16:42;;;;;;;32.97;21.60;;;2.40;99.90;;;;;;5116473;28;20157;-76
2022/01/16 10:19:22;;;;;;;46.83;32.50;;;2.30;99.90;;;;;;5116387;28;20188;-76
2022/01/16 10:21:49;;;;;;;33.43;21.03;;;2.30;99.90;;;;;;5116178;28;20192;-76
2022/01/16 10:27:42;;;;;;;33.10;20.37;;;2.30;99.90;;;;;;5116745;28;20217;-76
2022/01/16 10:30:39;;;;;;;29.77;18.53;;;2.40;99.90;;;;;;5115801;28;20204;-75
2022/01/16 10:33:11;;;;;;;24.97;14.90;;;2.30;99.90;;;;;;5118619;28;20193;-77
2022/01/16 10:35:37;;;;;;;24.07;14.63;;;2.30;99.90;;;;;;5125187;28;20210;-77
2022/01/16 10:38:03;;;;;;;24.57;15.73;;;2.30;99.90;;;;;;5125088;28;20221;-77
2022/01/16 10:40:50;;;;;;;25.70;15.90;;;2.30;99.90;;;;;;5125686;28;20188;-77
2022/01/16 10:43:19;;;;;;;28.07;16.10;;;2.30;99.90;;;;;;5124429;28;20217;-77
2022/01/16 10:45:46;;;;;;;23.30;15.00;;;2.30;99.90;;;;;;5124084;28;20196;-77
2022/01/16 10:48:14;;;;;;;21.47;14.73;;;2.40;99.90;;;;;;5124878;28;20176;-76
2022/01/16 10:50:47;;;;;;;23.83;16.37;;;2.40;99.90;;;;;;5124432;28;20208;-76
2022/01/16 10:53:19;;;;;;;23.00;16.27;;;2.40;99.90;;;;;;5124747;28;20282;-76
2022/01/16 10:55:59;;;;;;;44.87;29.63;;;2.50;99.90;;;;;;5124267;28;20179;-76
2022/01/16 10:58:34;;;;;;;28.00;19.97;;;2.50;99.90;;;;;;5115781;28;20184;-76
2022/01/16 11:01:05;;;;;;;24.93;16.33;;;2.50;99.90;;;;;;5115676;28;20188;-76
2022/01/16 11:03:47;;;;;;;23.03;15.00;;;2.60;99.90;;;;;;5115297;28;20664;-76
2022/01/16 11:06:13;;;;;;;25.23;16.37;;;2.60;99.90;;;;;;5114263;28;20242;-76
2022/01/16 11:12:21;;;;;;;25.53;16.63;;;2.50;99.90;;;;;;5115447;28;20151;-76
2022/01/16 11:14:47;;;;;;;24.73;16.60;;;2.50;99.90;;;;;;5114213;28;20188;-77
2022/01/16 11:17:36;;;;;;;28.03;18.37;;;2.50;99.90;;;;;;5115647;28;20188;-77
2022/01/16 11:20:33;;;;;;;24.93;16.47;;;2.50;99.90;;;;;;5114776;28;20208;-77
2022/01/16 11:23:06;;;;;;;23.30;15.50;;;2.60;99.90;;;;;;5115052;28;20252;-77
2022/01/16 11:25:38;;;;;;;24.93;17.07;;;2.60;99.90;;;;;;5113913;28;20180;-77
2022/01/16 11:28:23;;;;;;;19.00;14.53;;;2.60;99.90;;;;;;5113923;28;20199;-77
2022/01/16 11:30:58;;;;;;;23.57;15.90;;;2.60;99.90;;;;;;5115235;28;20184;-76
2022/01/16 11:33:28;;;;;;;21.47;16.00;;;2.60;99.90;;;;;;5113729;28;20174;-76
2022/01/16 11:35:59;;;;;;;17.30;14.30;;;2.70;99.90;;;;;;5114662;28;20176;-76
2022/01/16 11:38:36;;;;;;;18.80;14.03;;;2.70;99.90;;;;;;5114812;28;20184;-82
2022/01/16 11:41:57;;;;;;;21.87;15.50;;;2.80;99.90;;;;;;5113951;28;20292;-76
2022/01/16 11:45:03;;;;;;;20.90;14.97;;;2.90;99.90;;;;;;5113491;28;20543;-76
2022/01/16 11:47:29;;;;;;;15.77;12.47;;;3.10;99.90;;;;;;5055300;28;20605;-76
2022/01/16 11:50:06;;;;;;;14.70;11.43;;;3.20;99.90;;;;;;5102104;28;20215;-76
2022/01/16 11:52:55;;;;;;;16.70;11.47;;;3.40;99.90;;;;;;5114309;28;20172;-76
2022/01/16 11:55:33;;;;;;;12.27;9.73;;;3.60;99.90;;;;;;5113290;28;20562;-76
2022/01/16 11:58:00;;;;;;;23.80;16.40;;;3.70;99.90;;;;;;5114177;28;20203;-76
2022/01/16 12:00:43;;;;;;;57.53;39.47;;;3.70;99.90;;;;;;5116108;28;20275;-76
2022/01/16 12:03:35;;;;;;;30.13;21.43;;;3.50;99.90;;;;;;5116414;28;20156;-76
2022/01/16 12:06:32;;;;;;;23.57;16.17;;;3.40;99.90;;;;;;5115425;28;20183;-76
2022/01/16 12:09:03;;;;;;;21.23;15.40;;;3.30;99.90;;;;;;5111318;28;20192;-77
2022/01/16 12:11:36;;;;;;;26.57;18.03;;;3.40;99.90;;;;;;5116648;28;20200;-77
2022/01/16 12:14:02;;;;;;;42.27;26.40;;;3.50;99.90;;;;;;5114603;28;20184;-76
2022/01/16 12:16:38;;;;;;;24.10;16.67;;;3.40;99.90;;;;;;5113295;28;20406;-76
2022/01/16 12:19:34;;;;;;;32.90;22.60;;;3.40;99.90;;;;;;5114142;28;20180;-76
2022/01/16 12:22:00;;;;;;;35.87;23.70;;;3.40;99.90;;;;;;5114069;28;20194;-76
2022/01/16 12:25:04;;;;;;;64.43;39.17;;;3.30;99.90;;;;;;5112843;28;20172;-76
2022/01/16 12:27:45;;;;;;;30.37;20.07;;;3.20;99.90;;;;;;5113103;28;20160;-76
2022/01/16 12:30:32;;;;;;;24.73;17.77;;;3.10;99.90;;;;;;5113364;28;20261;-76
2022/01/16 12:36:36;;;;;;;33.40;21.47;;;3.00;99.90;;;;;;5113750;28;20160;-76
2022/01/16 12:41:58;;;;;;;23.13;17.40;;;3.00;99.90;;;;;;5030436;22;20262;-75
2022/01/16 12:44:25;;;;;;;14.03;10.53;;;3.00;99.90;;;;;;4995845;28;20195;-75
2022/01/16 12:46:52;;;;;;;17.20;10.43;;;3.00;99.90;;;;;;5013600;28;20171;-75
2022/01/16 12:50:16;;;;;;;14.10;9.97;;;3.00;99.90;;;;;;4996252;28;20180;-75
2022/01/16 12:52:48;;;;;;;13.50;9.77;;;3.00;99.90;;;;;;4994154;28;20165;-76
2022/01/16 12:55:14;;;;;;;34.63;23.57;;;3.00;99.90;;;;;;4993896;28;20188;-76
2022/01/16 12:57:40;;;;;;;23.03;18.03;;;3.00;99.90;;;;;;4976776;28;20207;-76
2022/01/16 13:00:12;;;;;;;21.17;16.47;;;2.90;99.90;;;;;;4993536;28;20293;-76
2022/01/16 13:02:38;;;;;;;19.43;14.57;;;2.90;99.90;;;;;;4992356;28;20191;-76
2022/01/16 13:05:05;;;;;;;14.33;11.60;;;3.00;99.90;;;;;;4975060;28;20169;-76
2022/01/16 13:07:32;;;;;;;20.37;17.23;;;3.00;99.90;;;;;;4993367;28;20160;-76
2022/01/16 13:09:58;;;;;;;18.40;13.83;;;2.90;99.90;;;;;;4976016;28;20211;-76
2022/01/16 13:15:52;;;;;;;91.60;53.03;;;2.90;99.90;;;;;;4993835;28;20168;-77
2022/01/16 13:18:18;;;;;;;43.30;31.80;;;2.80;99.90;;;;;;4976613;28;20204;-76
2022/01/16 13:20:47;;;;;;;34.07;25.90;;;2.80;99.90;;;;;;4976888;28;20196;-78
2022/01/16 13:23:15;;;;;;;21.00;14.40;;;2.80;99.90;;;;;;4976289;28;20180;-76
2022/01/16 13:26:21;;;;;;;16.40;11.60;;;2.80;99.90;;;;;;4993903;28;20180;-76
2022/01/16 13:28:47;;;;;;;19.03;12.93;;;2.80;99.90;;;;;;4977047;28;20215;-76
2022/01/16 13:31:12;;;;;;;15.53;11.53;;;2.80;99.90;;;;;;4976210;28;20202;-76
2022/01/16 13:33:38;;;;;;;18.17;12.63;;;2.90;99.90;;;;;;4976179;28;20215;-76
2022/01/16 13:36:04;;;;;;;17.10;12.87;;;2.80;99.90;;;;;;4976502;28;20176;-76
2022/01/16 13:38:30;;;;;;;17.37;12.43;;;2.70;99.90;;;;;;4976127;28;20196;-76
2022/01/16 13:40:56;;;;;;;14.33;11.07;;;2.70;99.90;;;;;;4976407;28;20212;-76
2022/01/16 13:43:29;;;;;;;23.30;16.73;;;2.80;99.90;;;;;;4993652;28;20183;-76
2022/01/16 13:45:55;;;;;;;16.50;11.87;;;2.90;99.90;;;;;;4976184;28;20168;-76
2022/01/16 13:48:24;;;;;;;17.43;11.77;;;2.90;99.90;;;;;;4979070;28;20211;-76
2022/01/16 13:50:53;;;;;;;15.90;11.90;;;2.90;99.90;;;;;;4979773;28;20196;-76
2022/01/16 13:53:23;;;;;;;16.77;11.50;;;2.90;99.90;;;;;;4996828;28;20195;-76
2022/01/16 13:55:56;;;;;;;18.20;12.17;;;2.90;99.90;;;;;;4997237;28;20250;-76
2022/01/16 13:58:24;;;;;;;16.70;12.03;;;3.00;99.90;;;;;;4979370;28;20254;-76
2022/01/16 14:00:50;;;;;;;16.03;11.20;;;3.00;99.90;;;;;;4979383;28;20234;-76
2022/01/16 14:03:22;;;;;;;18.83;12.13;;;2.90;99.90;;;;;;4979920;28;20179;-76
2022/01/16 14:05:51;;;;;;;15.37;11.27;;;2.90;99.90;;;;;;4979298;28;20179;-76
2022/01/16 14:08:21;;;;;;;15.00;10.97;;;3.00;99.90;;;;;;4980164;28;20180;-76
2022/01/16 14:10:47;;;;;;;14.33;10.80;;;3.00;99.90;;;;;;4979251;28;20215;-76
2022/01/16 14:13:12;;;;;;;15.07;10.80;;;3.00;99.90;;;;;;4979143;28;20321;-76